createdAt,value
2019-01-19T00:00:42.444Z,6.20
2019-01-19T00:01:42.414Z,7.20
2019-01-19T00:02:42.402Z,7.90
2019-01-19T00:03:42.407Z,8.40
2019-01-19T00:04:42.385Z,8.40
2019-01-19T00:05:42.371Z,8.60
2019-01-19T00:06:42.378Z,6.10
2019-01-19T00:07:42.352Z,6.10
2019-01-19T00:08:42.336Z,8.00
2019-01-19T00:09:42.327Z,7.30
2019-01-19T00:10:42.317Z,7.20
2019-01-19T00:11:42.309Z,7.30
2019-01-19T00:12:42.298Z,7.10
2019-01-19T00:13:42.287Z,5.60
2019-01-19T00:14:42.277Z,8.40
2019-01-19T00:15:42.270Z,6.30
2019-01-19T00:16:42.255Z,8.20
2019-01-19T00:17:42.246Z,6.90
2019-01-19T00:18:42.233Z,7.80
2019-01-19T00:19:42.228Z,7.30
2019-01-19T00:20:42.213Z,7.80
2019-01-19T00:21:42.205Z,7.90
2019-01-19T00:22:42.192Z,6.60
2019-01-19T00:23:42.186Z,8.70
2019-01-19T00:24:42.171Z,6.20
2019-01-19T00:25:42.164Z,16.00
2019-01-19T00:26:42.150Z,6.40
2019-01-19T00:27:42.139Z,8.80
2019-01-19T00:28:42.130Z,8.50
2019-01-19T00:29:42.121Z,6.60
2019-01-19T00:30:42.111Z,9.70
2019-01-19T00:31:42.100Z,10.70
2019-01-19T00:32:42.088Z,6.80
2019-01-19T00:33:42.075Z,8.10
2019-01-19T00:34:42.066Z,8.70
2019-01-19T00:35:42.056Z,11.20
2019-01-19T00:36:42.044Z,16.60
2019-01-19T00:37:42.032Z,10.40
2019-01-19T00:38:42.023Z,9.70
2019-01-19T00:39:42.015Z,10.50
2019-01-19T00:40:42.005Z,9.70
2019-01-19T00:41:41.992Z,7.40
2019-01-19T00:42:41.982Z,9.70
2019-01-19T00:43:41.975Z,7.20
2019-01-19T00:44:41.965Z,7.90
2019-01-19T00:45:41.950Z,6.90
2019-01-19T00:46:41.939Z,7.50
2019-01-19T00:47:41.931Z,9.50
2019-01-19T00:48:41.921Z,8.40
2019-01-19T00:49:41.911Z,7.70
2019-01-19T00:50:41.899Z,9.10
2019-01-19T00:51:41.886Z,8.70
2019-01-19T00:52:41.878Z,7.70
2019-01-19T00:53:41.863Z,8.30
2019-01-19T00:54:41.859Z,10.50
2019-01-19T00:55:41.854Z,12.90
2019-01-19T00:56:41.835Z,16.00
2019-01-19T00:57:41.825Z,8.80
2019-01-19T00:58:41.814Z,9.30
2019-01-19T00:59:41.803Z,8.70
2019-01-19T01:00:41.794Z,10.10
2019-01-19T01:01:41.784Z,9.50
2019-01-19T01:02:41.779Z,9.90
2019-01-19T01:03:41.763Z,10.00
2019-01-19T01:04:41.752Z,9.20
2019-01-19T01:05:41.742Z,8.00
2019-01-19T01:06:41.729Z,7.80
2019-01-19T01:07:41.720Z,9.80
2019-01-19T01:08:41.704Z,10.80
2019-01-19T01:09:41.695Z,10.50
2019-01-19T01:10:41.688Z,8.80
2019-01-19T01:11:41.679Z,9.00
2019-01-19T01:12:41.666Z,9.00
2019-01-19T01:13:41.659Z,8.90
2019-01-19T01:14:41.646Z,9.50
2019-01-19T01:15:41.635Z,9.70
2019-01-19T01:16:41.626Z,9.30
2019-01-19T01:17:41.612Z,10.60
2019-01-19T01:18:41.600Z,6.00
2019-01-19T01:19:41.593Z,10.20
2019-01-19T01:20:41.584Z,8.40
2019-01-19T01:21:41.571Z,8.90
2019-01-19T01:22:41.565Z,10.10
2019-01-19T01:23:41.553Z,8.20
2019-01-19T01:24:41.541Z,7.90
2019-01-19T01:25:41.534Z,10.00
2019-01-19T01:26:41.515Z,11.80
2019-01-19T01:27:41.506Z,11.50
2019-01-19T01:28:41.493Z,10.90
2019-01-19T01:29:41.488Z,7.30
2019-01-19T01:30:41.476Z,9.90
2019-01-19T01:31:41.470Z,6.20
2019-01-19T01:32:41.456Z,8.10
2019-01-19T01:33:41.445Z,7.90
2019-01-19T01:34:41.435Z,7.30
2019-01-19T01:35:41.425Z,8.00
2019-01-19T01:36:41.417Z,6.00
2019-01-19T01:37:41.407Z,7.40
2019-01-19T01:38:41.390Z,9.10
2019-01-19T01:39:41.382Z,7.00
2019-01-19T01:40:41.373Z,8.40
2019-01-19T01:41:41.370Z,7.40
2019-01-19T01:42:41.354Z,5.90
2019-01-19T01:43:41.342Z,5.70
2019-01-19T01:44:41.331Z,5.60
2019-01-19T01:45:41.361Z,7.30
2019-01-19T01:46:41.310Z,6.00
2019-01-19T01:47:41.297Z,5.00
2019-01-19T01:48:41.291Z,8.40
2019-01-19T01:49:41.280Z,6.20
2019-01-19T01:50:41.268Z,9.00
2019-01-19T01:51:41.261Z,8.50
2019-01-19T01:52:41.246Z,7.00
2019-01-19T01:53:41.239Z,6.60
2019-01-19T01:54:41.229Z,5.80
2019-01-19T01:55:41.217Z,6.10
2019-01-19T01:56:41.207Z,10.10
2019-01-19T01:57:41.195Z,6.10
2019-01-19T01:58:41.183Z,5.70
2019-01-19T01:59:41.172Z,8.70
2019-01-19T02:00:41.164Z,6.30
2019-01-19T02:01:41.155Z,8.00
2019-01-19T02:02:41.142Z,9.80
2019-01-19T02:03:41.130Z,6.60
2019-01-19T02:04:41.125Z,5.80
2019-01-19T02:05:41.111Z,8.90
2019-01-19T02:06:41.103Z,8.30
2019-01-19T02:07:41.091Z,10.70
2019-01-19T02:08:41.078Z,7.30
2019-01-19T02:09:41.070Z,7.60
2019-01-19T02:10:41.057Z,6.50
2019-01-19T02:11:41.051Z,9.90
2019-01-19T02:12:41.046Z,8.90
2019-01-19T02:13:41.024Z,6.40
2019-01-19T02:14:41.011Z,6.00
2019-01-19T02:15:41.009Z,6.70
2019-01-19T02:16:40.997Z,8.20
2019-01-19T02:17:40.984Z,8.00
2019-01-19T02:18:40.980Z,6.30
2019-01-19T02:19:40.963Z,7.30
2019-01-19T02:20:40.953Z,5.80
2019-01-19T02:21:40.942Z,7.70
2019-01-19T02:22:40.931Z,7.10
2019-01-19T02:23:40.918Z,5.70
2019-01-19T02:24:40.909Z,7.20
2019-01-19T02:25:40.894Z,8.20
2019-01-19T02:26:40.886Z,5.20
2019-01-19T02:27:40.879Z,5.80
2019-01-19T02:28:40.863Z,9.50
2019-01-19T02:29:40.855Z,6.40
2019-01-19T02:30:40.850Z,7.20
2019-01-19T02:31:40.831Z,10.00
2019-01-19T02:32:40.822Z,8.50
2019-01-19T02:33:40.816Z,8.90
2019-01-19T02:34:40.809Z,6.70
2019-01-19T02:35:48.148Z,6.50
2019-01-19T02:36:41.782Z,6.60
2019-01-19T02:37:40.771Z,5.10
2019-01-19T02:38:40.765Z,7.60
2019-01-19T02:39:40.752Z,8.00
2019-01-19T02:40:40.745Z,6.50
2019-01-19T02:41:40.739Z,6.80
2019-01-19T02:42:40.721Z,7.00
2019-01-19T02:43:40.708Z,6.60
2019-01-19T02:44:40.699Z,8.70
2019-01-19T02:45:40.691Z,5.20
2019-01-19T02:46:40.685Z,6.00
2019-01-19T02:47:40.671Z,6.70
2019-01-19T02:48:40.660Z,8.20
2019-01-19T02:49:40.645Z,7.00
2019-01-19T02:50:40.637Z,5.80
2019-01-19T02:51:40.629Z,6.90
2019-01-19T02:52:40.620Z,5.40
2019-01-19T02:53:40.612Z,10.20
2019-01-19T02:54:40.597Z,7.10
2019-01-19T02:55:40.589Z,8.70
2019-01-19T02:56:40.575Z,8.90
2019-01-19T02:57:40.563Z,8.70
2019-01-19T02:58:40.560Z,5.60
2019-01-19T02:59:40.541Z,12.50
2019-01-19T03:00:40.531Z,6.10
2019-01-19T03:01:40.523Z,6.50
2019-01-19T03:02:40.511Z,5.50
2019-01-19T03:03:40.501Z,5.70
2019-01-19T03:04:40.492Z,5.40
2019-01-19T03:05:40.479Z,6.60
2019-01-19T03:06:40.471Z,7.90
2019-01-19T03:07:40.456Z,7.80
2019-01-19T03:08:40.449Z,7.40
2019-01-19T03:09:40.441Z,7.20
2019-01-19T03:10:40.437Z,6.50
2019-01-19T03:11:40.416Z,6.60
2019-01-19T03:12:40.411Z,7.40
2019-01-19T03:13:40.396Z,6.90
2019-01-19T03:14:40.387Z,9.90
2019-01-19T03:15:40.375Z,10.00
2019-01-19T03:16:40.367Z,11.00
2019-01-19T03:17:40.355Z,10.90
2019-01-19T03:18:40.345Z,9.90
2019-01-19T03:19:40.339Z,7.00
2019-01-19T03:20:40.322Z,9.10
2019-01-19T03:21:40.315Z,9.70
2019-01-19T03:22:40.306Z,9.60
2019-01-19T03:23:40.290Z,7.90
2019-01-19T03:24:40.276Z,8.40
2019-01-19T03:25:40.270Z,7.70
2019-01-19T03:26:40.257Z,7.80
2019-01-19T03:27:40.253Z,7.90
2019-01-19T03:28:40.239Z,10.20
2019-01-19T03:29:40.233Z,9.00
2019-01-19T03:30:40.222Z,9.50
2019-01-19T03:31:40.218Z,7.80
2019-01-19T03:32:40.197Z,10.20
2019-01-19T03:33:40.187Z,10.80
2019-01-19T03:34:40.169Z,7.80
2019-01-19T03:35:40.166Z,8.60
2019-01-19T03:36:40.157Z,7.30
2019-01-19T03:37:40.145Z,8.70
2019-01-19T03:38:40.134Z,7.00
2019-01-19T03:39:40.126Z,7.50
2019-01-19T03:40:40.111Z,8.50
2019-01-19T03:41:40.105Z,8.70
2019-01-19T03:42:40.091Z,8.30
2019-01-19T03:43:40.084Z,8.90
2019-01-19T03:44:40.070Z,11.60
2019-01-19T03:45:40.060Z,10.80
2019-01-19T03:46:40.049Z,8.50
2019-01-19T03:47:40.042Z,10.10
2019-01-19T03:48:40.034Z,10.20
2019-01-19T03:49:40.018Z,11.20
2019-01-19T03:50:40.008Z,11.50
2019-01-19T03:51:40.000Z,6.90
2019-01-19T03:52:39.988Z,10.50
2019-01-19T03:53:39.982Z,10.60
2019-01-19T03:54:39.960Z,10.20
2019-01-19T03:55:39.958Z,12.40
2019-01-19T03:56:39.950Z,12.10
2019-01-19T03:57:39.937Z,12.70
2019-01-19T03:58:39.925Z,12.30
2019-01-19T03:59:39.914Z,10.60
2019-01-19T04:00:39.904Z,11.80
2019-01-19T04:01:39.895Z,12.50
2019-01-19T04:02:39.884Z,10.50
2019-01-19T04:03:39.875Z,14.20
2019-01-19T04:04:39.935Z,13.30
2019-01-19T04:05:39.849Z,11.80
2019-01-19T04:06:39.840Z,13.70
2019-01-19T04:07:39.834Z,14.20
2019-01-19T04:08:39.819Z,8.30
2019-01-19T04:09:39.808Z,10.60
2019-01-19T04:10:39.798Z,9.20
2019-01-19T04:11:39.782Z,8.40
2019-01-19T04:12:39.776Z,10.80
2019-01-19T04:13:39.768Z,12.50
2019-01-19T04:14:39.757Z,9.90
2019-01-19T04:15:39.744Z,9.80
2019-01-19T04:16:39.735Z,11.50
2019-01-19T04:17:39.724Z,8.80
2019-01-19T04:18:39.719Z,9.70
2019-01-19T04:19:39.705Z,8.70
2019-01-19T04:20:39.695Z,10.70
2019-01-19T04:21:39.682Z,8.10
2019-01-19T04:22:39.672Z,10.00
2019-01-19T04:23:39.661Z,11.90
2019-01-19T04:24:39.653Z,10.20
2019-01-19T04:25:39.646Z,12.20
2019-01-19T04:26:39.634Z,9.90
2019-01-19T04:27:39.616Z,9.50
2019-01-19T04:28:39.610Z,12.60
2019-01-19T04:29:39.598Z,12.70
2019-01-19T04:30:39.588Z,10.20
2019-01-19T04:31:39.579Z,12.40
2019-01-19T04:32:39.569Z,10.00
2019-01-19T04:33:39.558Z,11.20
2019-01-19T04:34:39.547Z,8.70
2019-01-19T04:35:39.533Z,12.20
2019-01-19T04:36:39.525Z,9.30
2019-01-19T04:37:39.516Z,10.60
2019-01-19T04:38:39.505Z,7.70
2019-01-19T04:39:39.495Z,12.30
2019-01-19T04:40:39.487Z,11.20
2019-01-19T04:41:39.477Z,8.90
2019-01-19T04:42:39.465Z,9.60
2019-01-19T04:43:39.455Z,9.60
2019-01-19T04:44:39.449Z,10.30
2019-01-19T04:45:39.431Z,11.30
2019-01-19T04:46:39.418Z,8.90
2019-01-19T04:47:39.410Z,12.70
2019-01-19T04:48:39.396Z,10.20
2019-01-19T04:49:39.388Z,10.70
2019-01-19T04:50:39.409Z,9.90
2019-01-19T04:51:39.370Z,9.20
2019-01-19T04:52:39.360Z,7.30
2019-01-19T04:53:39.349Z,8.60
2019-01-19T04:54:39.338Z,6.50
2019-01-19T04:55:39.328Z,6.80
2019-01-19T04:56:39.317Z,7.20
2019-01-19T04:57:39.305Z,7.00
2019-01-19T04:58:39.292Z,6.20
2019-01-19T04:59:39.291Z,6.80
2019-01-19T05:00:39.271Z,7.90
2019-01-19T05:01:39.260Z,6.90
2019-01-19T05:02:39.251Z,11.50
2019-01-19T05:03:39.245Z,10.80
2019-01-19T05:04:39.236Z,8.50
2019-01-19T05:05:39.224Z,9.50
2019-01-19T05:06:39.213Z,8.10
2019-01-19T05:07:39.204Z,8.50
2019-01-19T05:08:39.192Z,7.60
2019-01-19T05:09:39.183Z,10.50
2019-01-19T05:10:39.173Z,8.70
2019-01-19T05:11:39.163Z,9.80
2019-01-19T05:12:39.149Z,6.50
2019-01-19T05:13:39.141Z,8.60
2019-01-19T05:14:39.130Z,8.30
2019-01-19T05:15:39.122Z,9.80
2019-01-19T05:16:39.109Z,8.90
2019-01-19T05:17:39.109Z,8.00
2019-01-19T05:18:39.083Z,10.00
2019-01-19T05:19:39.075Z,12.50
2019-01-19T05:20:39.061Z,9.20
2019-01-19T05:21:39.056Z,10.20
2019-01-19T05:22:39.043Z,7.30
2019-01-19T05:23:39.032Z,9.20
2019-01-19T05:24:39.029Z,7.80
2019-01-19T05:25:39.017Z,7.60
2019-01-19T05:26:39.003Z,9.40
2019-01-19T05:27:38.994Z,11.30
2019-01-19T05:28:38.988Z,9.40
2019-01-19T05:29:38.991Z,9.50
2019-01-19T05:30:38.965Z,11.10
2019-01-19T05:31:38.953Z,11.90
2019-01-19T05:32:38.938Z,9.40
2019-01-19T05:33:38.929Z,10.60
2019-01-19T05:34:38.917Z,12.70
2019-01-19T05:35:38.908Z,14.30
2019-01-19T05:36:38.898Z,11.50
2019-01-19T05:37:38.885Z,10.80
2019-01-19T05:38:38.883Z,9.90
2019-01-19T05:39:38.864Z,9.60
2019-01-19T05:40:38.857Z,9.80
2019-01-19T05:41:38.845Z,10.40
2019-01-19T05:42:38.836Z,10.30
2019-01-19T05:43:38.826Z,8.60
2019-01-19T05:44:38.813Z,13.10
2019-01-19T05:45:38.805Z,11.40
2019-01-19T05:46:38.796Z,11.80
2019-01-19T05:47:38.782Z,10.20
2019-01-19T05:48:38.776Z,12.20
2019-01-19T05:49:38.770Z,12.60
2019-01-19T05:50:38.751Z,9.40
2019-01-19T05:51:38.744Z,10.40
2019-01-19T05:52:38.728Z,10.00
2019-01-19T05:53:38.719Z,13.00
2019-01-19T05:54:38.710Z,14.80
2019-01-19T05:55:38.698Z,12.30
2019-01-19T05:56:38.699Z,13.40
2019-01-19T05:57:38.683Z,13.50
2019-01-19T05:58:38.674Z,12.30
2019-01-19T05:59:38.660Z,15.90
2019-01-19T06:00:38.650Z,11.50
2019-01-19T06:01:38.636Z,12.70
2019-01-19T06:02:38.624Z,15.50
2019-01-19T06:03:38.614Z,11.30
2019-01-19T06:04:38.608Z,14.70
2019-01-19T06:05:38.606Z,15.80
2019-01-19T06:06:46.342Z,15.50
2019-01-19T06:07:39.571Z,13.70
2019-01-19T06:08:38.562Z,15.40
2019-01-19T06:09:38.552Z,16.10
2019-01-19T06:10:38.546Z,16.20
2019-01-19T06:11:38.536Z,18.60
2019-01-19T06:12:38.525Z,16.40
2019-01-19T06:13:38.510Z,14.60
2019-01-19T06:14:38.499Z,17.00
2019-01-19T06:15:38.490Z,13.80
2019-01-19T06:16:38.480Z,12.30
2019-01-19T06:17:38.470Z,13.90
2019-01-19T06:18:38.459Z,12.50
2019-01-19T06:19:38.450Z,16.20
2019-01-19T06:20:38.436Z,13.50
2019-01-19T06:21:38.426Z,11.00
2019-01-19T06:22:38.419Z,10.80
2019-01-19T06:23:38.406Z,12.70
2019-01-19T06:24:38.399Z,15.00
2019-01-19T06:25:38.387Z,15.30
2019-01-19T06:26:38.373Z,14.10
2019-01-19T06:27:38.367Z,14.70
2019-01-19T06:28:38.352Z,12.00
2019-01-19T06:29:38.344Z,17.70
2019-01-19T06:30:38.334Z,13.80
2019-01-19T06:31:38.370Z,12.00
2019-01-19T06:32:38.314Z,14.60
2019-01-19T06:33:38.302Z,11.40
2019-01-19T06:34:38.289Z,13.20
2019-01-19T06:35:38.280Z,11.40
2019-01-19T06:36:38.271Z,14.60
2019-01-19T06:37:38.258Z,12.20
2019-01-19T06:38:38.248Z,14.20
2019-01-19T06:39:38.234Z,13.40
2019-01-19T06:40:38.234Z,11.90
2019-01-19T06:41:38.225Z,11.00
2019-01-19T06:42:38.210Z,13.30
2019-01-19T06:43:38.196Z,12.60
2019-01-19T06:44:38.184Z,10.80
2019-01-19T06:45:38.177Z,10.60
2019-01-19T06:46:38.164Z,11.10
2019-01-19T06:47:38.156Z,9.00
2019-01-19T06:48:38.144Z,8.80
2019-01-19T06:49:38.135Z,11.60
2019-01-19T06:50:38.121Z,10.10
2019-01-19T06:51:38.114Z,10.50
2019-01-19T06:52:38.099Z,9.80
2019-01-19T06:53:38.097Z,11.00
2019-01-19T06:54:38.078Z,12.50
2019-01-19T06:55:38.073Z,12.60
2019-01-19T06:56:38.060Z,12.30
2019-01-19T06:57:38.049Z,12.60
2019-01-19T06:58:38.040Z,14.50
2019-01-19T06:59:38.029Z,12.20
2019-01-19T07:00:38.019Z,11.80
2019-01-19T07:01:38.007Z,10.80
2019-01-19T07:02:37.996Z,10.80
2019-01-19T07:03:37.998Z,12.70
2019-01-19T07:04:37.978Z,13.20
2019-01-19T07:05:37.966Z,14.30
2019-01-19T07:06:37.954Z,12.90
2019-01-19T07:07:37.945Z,14.00
2019-01-19T07:08:37.932Z,11.50
2019-01-19T07:09:37.922Z,13.30
2019-01-19T07:10:37.914Z,14.10
2019-01-19T07:11:37.903Z,14.70
2019-01-19T07:12:37.893Z,14.30
2019-01-19T07:13:37.880Z,16.40
2019-01-19T07:14:37.871Z,13.90
2019-01-19T07:15:37.860Z,15.60
2019-01-19T07:16:37.849Z,15.30
2019-01-19T07:17:37.841Z,18.30
2019-01-19T07:18:37.826Z,16.00
2019-01-19T07:19:37.814Z,16.00
2019-01-19T07:20:37.809Z,18.10
2019-01-19T07:21:37.797Z,15.80
2019-01-19T07:22:37.791Z,16.80
2019-01-19T07:23:37.775Z,15.50
2019-01-19T07:24:37.766Z,19.30
2019-01-19T07:25:37.759Z,17.30
2019-01-19T07:26:37.745Z,14.30
2019-01-19T07:27:37.736Z,14.40
2019-01-19T07:28:37.721Z,14.50
2019-01-19T07:29:37.717Z,18.70
2019-01-19T07:30:37.704Z,18.40
2019-01-19T07:31:37.693Z,30.80
2019-01-19T07:32:37.682Z,50.00
2019-01-19T07:33:37.671Z,40.20
2019-01-19T07:34:37.668Z,40.40
2019-01-19T07:35:37.652Z,28.40
2019-01-19T07:36:37.642Z,20.20
2019-01-19T07:37:37.630Z,16.30
2019-01-19T07:38:37.619Z,16.70
2019-01-19T07:39:37.612Z,16.30
2019-01-19T07:40:37.598Z,19.50
2019-01-19T07:41:37.583Z,17.80
2019-01-19T07:42:37.573Z,15.80
2019-01-19T07:43:37.565Z,15.10
2019-01-19T07:44:37.553Z,17.90
2019-01-19T07:45:37.543Z,18.70
2019-01-19T07:46:37.529Z,15.20
2019-01-19T07:47:37.522Z,18.30
2019-01-19T07:48:37.508Z,17.90
2019-01-19T07:49:37.499Z,15.70
2019-01-19T07:50:37.488Z,17.10
2019-01-19T07:51:37.478Z,16.90
2019-01-19T07:52:37.467Z,18.50
2019-01-19T07:53:37.456Z,19.80
2019-01-19T07:54:37.446Z,17.90
2019-01-19T07:55:37.437Z,15.60
2019-01-19T07:56:37.425Z,17.50
2019-01-19T07:57:37.418Z,19.70
2019-01-19T07:58:37.405Z,16.80
2019-01-19T07:59:37.393Z,17.70
2019-01-19T08:00:37.383Z,15.30
2019-01-19T08:01:37.372Z,17.20
2019-01-19T08:02:37.362Z,18.80
2019-01-19T08:03:37.351Z,17.70
2019-01-19T08:04:37.341Z,16.00
2019-01-19T08:05:37.330Z,20.40
2019-01-19T08:06:37.320Z,18.60
2019-01-19T08:07:37.315Z,15.90
2019-01-19T08:08:37.298Z,20.00
2019-01-19T08:09:37.288Z,21.20
2019-01-19T08:10:37.277Z,20.20
2019-01-19T08:11:37.267Z,17.70
2019-01-19T08:12:37.258Z,20.20
2019-01-19T08:13:37.301Z,17.10
2019-01-19T08:14:37.238Z,19.10
2019-01-19T08:15:37.227Z,18.70
2019-01-19T08:16:37.221Z,17.80
2019-01-19T08:17:37.215Z,20.20
2019-01-19T08:18:37.200Z,18.70
2019-01-19T08:19:37.192Z,19.90
2019-01-19T08:20:37.183Z,16.90
2019-01-19T08:21:37.175Z,17.20
2019-01-19T08:22:37.162Z,19.40
2019-01-19T08:23:37.148Z,18.80
2019-01-19T08:24:37.141Z,21.10
2019-01-19T08:25:37.133Z,17.70
2019-01-19T08:26:37.123Z,16.70
2019-01-19T08:27:37.108Z,16.90
2019-01-19T08:28:37.105Z,17.60
2019-01-19T08:29:37.088Z,18.50
2019-01-19T08:30:37.077Z,18.70
2019-01-19T08:31:37.064Z,19.80
2019-01-19T08:32:37.056Z,16.00
2019-01-19T08:33:37.045Z,20.40
2019-01-19T08:34:37.033Z,19.50
2019-01-19T08:35:37.025Z,17.50
2019-01-19T08:36:37.013Z,17.50
2019-01-19T08:37:37.015Z,18.90
2019-01-19T08:38:36.997Z,18.20
2019-01-19T08:39:36.980Z,17.50
2019-01-19T08:40:36.970Z,18.40
2019-01-19T08:41:36.967Z,20.80
2019-01-19T08:42:36.956Z,18.00
2019-01-19T08:43:36.940Z,18.50
2019-01-19T08:44:36.929Z,18.80
2019-01-19T08:45:36.915Z,16.60
2019-01-19T08:46:36.946Z,15.80
2019-01-19T08:47:36.898Z,15.90
2019-01-19T08:48:36.883Z,13.50
2019-01-19T08:49:36.877Z,15.10
2019-01-19T08:50:36.864Z,16.80
2019-01-19T08:51:36.856Z,15.90
2019-01-19T08:52:36.847Z,16.10
2019-01-19T08:53:36.844Z,15.20
2019-01-19T08:54:36.839Z,20.30
2019-01-19T08:55:36.976Z,16.10
2019-01-19T08:56:38.144Z,17.40
2019-01-19T08:57:36.830Z,15.50
2019-01-19T08:58:36.823Z,14.70
2019-01-19T08:59:36.781Z,14.00
2019-01-19T09:00:36.765Z,15.00
2019-01-19T09:01:36.797Z,16.30
2019-01-19T09:02:36.794Z,14.60
2019-01-19T09:03:36.728Z,18.40
2019-01-19T09:04:36.718Z,16.10
2019-01-19T09:05:36.713Z,18.10
2019-01-19T09:06:36.730Z,15.40
2019-01-19T09:07:36.710Z,15.80
2019-01-19T09:08:36.699Z,14.90
2019-01-19T09:09:36.672Z,18.20
2019-01-19T09:10:36.661Z,15.40
2019-01-19T09:11:36.640Z,18.40
2019-01-19T09:12:36.630Z,15.20
2019-01-19T09:13:36.627Z,16.30
2019-01-19T09:14:36.607Z,16.80
2019-01-19T09:15:36.597Z,15.80
2019-01-19T09:16:40.543Z,18.50
2019-01-19T09:17:37.576Z,13.10
2019-01-19T09:18:36.583Z,17.90
2019-01-19T09:19:36.562Z,15.60
2019-01-19T09:20:36.544Z,15.20
2019-01-19T09:21:36.535Z,17.60
2019-01-19T09:22:36.527Z,13.90
2019-01-19T09:23:36.513Z,17.20
2019-01-19T09:24:36.502Z,16.40
2019-01-19T09:25:36.492Z,19.20
2019-01-19T09:26:36.544Z,15.40
2019-01-19T09:27:36.471Z,18.20
2019-01-19T09:28:36.464Z,15.30
2019-01-19T09:29:36.452Z,17.00
2019-01-19T09:30:36.441Z,16.20
2019-01-19T09:31:36.436Z,18.20
2019-01-19T09:32:36.417Z,16.00
2019-01-19T09:33:36.404Z,18.30
2019-01-19T09:34:36.402Z,16.60
2019-01-19T09:35:36.382Z,15.70
2019-01-19T09:36:36.431Z,16.50
2019-01-19T09:37:40.788Z,19.40
2019-01-19T09:38:36.353Z,16.90
2019-01-19T09:39:36.347Z,16.10
2019-01-19T09:40:36.331Z,16.70
2019-01-19T09:41:36.319Z,18.30
2019-01-19T09:42:36.308Z,18.80
2019-01-19T09:43:36.298Z,16.10
2019-01-19T09:44:36.287Z,14.90
2019-01-19T09:45:36.304Z,16.70
2019-01-19T09:46:36.267Z,16.70
2019-01-19T09:47:36.258Z,18.50
2019-01-19T09:48:36.249Z,19.00
2019-01-19T09:49:36.235Z,18.80
2019-01-19T09:50:36.233Z,21.80
2019-01-19T09:51:36.211Z,20.20
2019-01-19T09:52:36.201Z,16.00
2019-01-19T09:53:36.189Z,17.00
2019-01-19T09:54:36.186Z,20.50
2019-01-19T09:55:36.172Z,17.10
2019-01-19T09:56:36.179Z,17.70
2019-01-19T09:57:37.117Z,19.10
2019-01-19T09:58:36.145Z,19.60
2019-01-19T09:59:36.128Z,17.60
2019-01-19T10:00:37.831Z,17.40
2019-01-19T10:01:36.108Z,19.40
2019-01-19T10:02:36.095Z,20.80
2019-01-19T10:03:36.085Z,18.60
2019-01-19T10:04:36.073Z,19.20
2019-01-19T10:05:36.071Z,21.80
2019-01-19T10:06:36.055Z,18.30
2019-01-19T10:07:36.044Z,18.10
2019-01-19T10:08:36.036Z,19.40
2019-01-19T10:09:36.025Z,16.70
2019-01-19T10:10:36.010Z,19.60
2019-01-19T10:11:36.000Z,17.50
2019-01-19T10:12:35.987Z,19.30
2019-01-19T10:13:35.977Z,22.10
2019-01-19T10:14:35.969Z,21.70
2019-01-19T10:15:35.969Z,21.00
2019-01-19T10:16:35.946Z,22.00
2019-01-19T10:17:35.935Z,19.50
2019-01-19T10:18:35.927Z,18.20
2019-01-19T10:19:35.917Z,18.60
2019-01-19T10:20:35.905Z,19.90
2019-01-19T10:21:35.906Z,19.90
2019-01-19T10:22:35.882Z,17.00
2019-01-19T10:23:35.877Z,17.80
2019-01-19T10:24:35.862Z,19.20
2019-01-19T10:25:35.855Z,18.30
2019-01-19T10:26:35.843Z,22.30
2019-01-19T10:27:37.533Z,19.30
2019-01-19T10:28:35.816Z,19.50
2019-01-19T10:29:35.803Z,19.90
2019-01-19T10:30:35.798Z,19.60
2019-01-19T10:31:35.785Z,17.80
2019-01-19T10:32:35.777Z,19.50
2019-01-19T10:33:35.768Z,16.90
2019-01-19T10:34:35.758Z,16.30
2019-01-19T10:35:35.742Z,17.40
2019-01-19T10:36:35.737Z,16.80
2019-01-19T10:37:35.725Z,18.00
2019-01-19T10:38:35.717Z,17.80
2019-01-19T10:39:35.702Z,16.40
2019-01-19T10:40:35.695Z,16.90
2019-01-19T10:41:40.839Z,17.80
2019-01-19T10:42:36.671Z,18.50
2019-01-19T10:43:35.656Z,18.70
2019-01-19T10:44:35.650Z,19.50
2019-01-19T10:45:35.641Z,19.70
2019-01-19T10:46:35.628Z,19.50
2019-01-19T10:47:35.613Z,18.10
2019-01-19T10:48:35.612Z,19.10
2019-01-19T10:49:35.596Z,16.40
2019-01-19T10:50:35.583Z,15.80
2019-01-19T10:51:35.570Z,16.80
2019-01-19T10:52:35.559Z,18.00
2019-01-19T10:53:35.550Z,19.40
2019-01-19T10:54:35.541Z,19.60
2019-01-19T10:55:35.528Z,17.40
2019-01-19T10:56:35.520Z,16.50
2019-01-19T10:57:35.506Z,17.90
2019-01-19T10:58:35.499Z,17.10
2019-01-19T10:59:35.489Z,17.60
2019-01-19T11:00:35.480Z,17.00
2019-01-19T11:01:35.467Z,18.60
2019-01-19T11:02:35.462Z,18.00
2019-01-19T11:03:35.445Z,18.00
2019-01-19T11:04:35.438Z,19.00
2019-01-19T11:05:35.462Z,17.60
2019-01-19T11:06:35.410Z,20.90
2019-01-19T11:07:35.445Z,16.20
2019-01-19T11:08:35.392Z,18.90
2019-01-19T11:09:35.381Z,19.40
2019-01-19T11:10:35.372Z,19.30
2019-01-19T11:11:35.358Z,19.30
2019-01-19T11:12:35.352Z,17.50
2019-01-19T11:13:35.337Z,18.60
2019-01-19T11:14:35.328Z,19.00
2019-01-19T11:15:35.322Z,19.60
2019-01-19T11:16:35.314Z,19.80
2019-01-19T11:17:35.298Z,18.30
2019-01-19T11:18:35.284Z,17.60
2019-01-19T11:19:35.271Z,19.40
2019-01-19T11:20:35.268Z,16.90
2019-01-19T11:21:35.251Z,17.40
2019-01-19T11:22:35.242Z,18.40
2019-01-19T11:23:39.731Z,16.60
2019-01-19T11:24:35.224Z,17.30
2019-01-19T11:25:35.207Z,16.00
2019-01-19T11:26:35.201Z,18.40
2019-01-19T11:27:35.190Z,16.00
2019-01-19T11:28:35.173Z,17.90
2019-01-19T11:29:35.179Z,19.20
2019-01-19T11:30:35.159Z,21.00
2019-01-19T11:31:35.141Z,18.30
2019-01-19T11:32:35.136Z,16.60
2019-01-19T11:33:35.138Z,19.40
2019-01-19T11:34:35.118Z,18.50
2019-01-19T11:35:35.105Z,21.80
2019-01-19T11:36:35.090Z,19.50
2019-01-19T11:37:35.083Z,18.60
2019-01-19T11:38:35.075Z,16.60
2019-01-19T11:39:35.062Z,18.70
2019-01-19T11:40:35.047Z,17.20
2019-01-19T11:41:35.036Z,19.60
2019-01-19T11:42:35.035Z,21.50
2019-01-19T11:43:35.058Z,21.50
2019-01-19T11:44:35.015Z,18.50
2019-01-19T11:45:34.994Z,20.40
2019-01-19T11:46:34.981Z,17.10
2019-01-19T11:47:34.973Z,21.00
2019-01-19T11:48:34.969Z,23.80
2019-01-19T11:49:34.949Z,20.70
2019-01-19T11:50:34.943Z,18.50
2019-01-19T11:51:34.927Z,17.50
2019-01-19T11:52:34.966Z,17.40
2019-01-19T11:53:34.912Z,19.90
2019-01-19T11:54:34.901Z,19.90
2019-01-19T11:55:34.886Z,19.70
2019-01-19T11:56:34.979Z,18.20
2019-01-19T11:57:34.864Z,17.70
2019-01-19T11:58:34.856Z,18.50
2019-01-19T11:59:34.848Z,18.40
2019-01-19T12:00:34.832Z,18.90
2019-01-19T12:01:34.823Z,16.70
2019-01-19T12:02:37.147Z,19.60
2019-01-19T12:03:34.804Z,19.30
2019-01-19T12:04:34.792Z,19.20
2019-01-19T12:05:34.782Z,16.90
2019-01-19T12:06:34.774Z,19.10
2019-01-19T12:07:43.436Z,20.50
2019-01-19T12:09:16.866Z,15.80
2019-01-19T12:10:16.776Z,19.20
2019-01-19T12:11:16.773Z,17.80
2019-01-19T12:12:16.787Z,19.20
2019-01-19T12:13:16.754Z,19.90
2019-01-19T12:14:16.735Z,18.50
2019-01-19T12:15:16.719Z,18.70
2019-01-19T12:16:16.706Z,16.70
2019-01-19T12:17:16.697Z,17.20
2019-01-19T12:18:16.686Z,18.00
2019-01-19T12:19:16.674Z,16.30
2019-01-19T12:20:16.661Z,17.50
2019-01-19T12:21:16.654Z,17.30
2019-01-19T12:22:16.640Z,17.10
2019-01-19T12:23:16.629Z,18.70
2019-01-19T12:24:16.618Z,18.00
2019-01-19T12:25:16.607Z,17.50
2019-01-19T12:26:16.601Z,18.00
2019-01-19T12:27:16.585Z,17.90
2019-01-19T12:28:16.574Z,17.10
2019-01-19T12:29:16.565Z,18.50
2019-01-19T12:30:16.552Z,17.10
2019-01-19T12:31:16.542Z,16.50
2019-01-19T12:32:16.532Z,18.30
2019-01-19T12:33:16.521Z,16.00
2019-01-19T12:34:16.509Z,16.40
2019-01-19T12:35:16.500Z,19.10
2019-01-19T12:36:16.490Z,15.30
2019-01-19T12:37:16.478Z,16.10
2019-01-19T12:38:16.473Z,16.30
2019-01-19T12:39:16.457Z,15.80
2019-01-19T12:40:16.450Z,18.20
2019-01-19T12:41:16.438Z,17.70
2019-01-19T12:42:16.427Z,17.10
2019-01-19T12:43:16.413Z,16.20
2019-01-19T12:44:16.403Z,19.00
2019-01-19T12:45:16.399Z,16.80
2019-01-19T12:46:16.382Z,17.30
2019-01-19T12:47:16.374Z,15.40
2019-01-19T12:48:16.361Z,16.90
2019-01-19T12:49:16.349Z,17.50
2019-01-19T12:50:16.339Z,18.60
2019-01-19T12:51:16.327Z,19.20
2019-01-19T12:52:16.314Z,20.40
2019-01-19T12:53:16.305Z,17.60
2019-01-19T12:54:16.294Z,15.60
2019-01-19T12:55:17.365Z,20.20
2019-01-19T12:56:16.272Z,18.50
2019-01-19T12:57:16.261Z,18.90
2019-01-19T12:58:16.251Z,20.10
2019-01-19T12:59:16.242Z,17.70
2019-01-19T13:00:16.234Z,22.10
2019-01-19T13:01:16.219Z,18.50